• Join FlightAware (Why Join?)
  • Login
  • US Flag 
07:58AM EDT


 

Airport Tracker/Info


-or-


 

Live Flight TrackerFlight Track Log ✈ SWA311 ✈ 11-Apr-2013 ✈ KSAN - KOAK

Flight Track Log - Related Links

Times and Time Zones

All times are in EDT time to prevent confusion due to time zone crossing. See the SWA311 flight status page for this flight to view local times or setup timezone preferences in your user account.

Time Position Orientation Groundspeed Altitude Reporting Facility
EDT Latitude Longitude Course Direction KTS MPH feet Rate Location/Type
11:29AM 32.7461 -117.2283 310° West 177 204 2,500  Level Los Angeles Center
11:30AM 32.7819 -117.2800 310° West 193 222 6,300 3,960 Climbing Los Angeles Center
11:31AM 32.8342 -117.3497 312° West 245 282 10,800 3,960 Climbing Los Angeles Center
11:32AM 32.8894 -117.4281 310° West 282 325 14,500 3,540 Climbing Los Angeles Center
11:33AM 32.9514 -117.5131 311° West 311 358 18,200 3,660 Climbing Los Angeles Center
11:34AM 33.0460 -117.6310 310° West  Level FlightAware Approximate
11:34AM 33.0147 -117.6019 310° West 333 383 22,100  Level Los Angeles Center
11:35AM 33.0947 -117.7136 311° West 362 417 25,400 2,880 Climbing Los Angeles Center
11:36AM 33.1642 -117.8108 310° West 379 436 28,100 2,460 Climbing Los Angeles Center
11:37AM 33.2589 -117.8822 328° Northwest 402 463 30,500 2,520 Climbing Los Angeles Center
11:38AM 33.3586 -117.9444 332° Northwest 405 466 33,400 2,520 Climbing Los Angeles Center
11:39AM 33.4553 -118.0056 332° Northwest 398 458 35,800 1,920 Climbing Los Angeles Center
11:40AM 33.5525 -118.0667 332° Northwest 394 453 37,400 1,980 Climbing Los Angeles Center
11:41AM 33.6706 -118.1408 332° Northwest 398 458 39,900 1,200 Climbing Los Angeles Center
11:42AM 33.7622 -118.1972 333° Northwest 377 434 40,000  Climbing Los Angeles Center
11:43AM 33.8533 -118.2542 333° Northwest 370 426 40,000  Level Los Angeles Center
11:44AM 33.9456 -118.3136 332° Northwest 374 430 40,000  Level Los Angeles Center
11:45AM 34.0386 -118.3717 333° Northwest 376 433 40,000  Level Los Angeles Center
11:46AM 34.1317 -118.4303 332° Northwest 376 433 40,000 -60 Level Los Angeles Center
11:47AM 34.2431 -118.5025 332° Northwest 378 435 39,900 -600 Descending Los Angeles Center
11:48AM 34.3353 -118.5619 332° Northwest 377 434 38,800 -960 Descending Los Angeles Center
11:49AM 34.4292 -118.6211 333° Northwest 376 433 38,000 -420 Descending Los Angeles Center
11:50AM 34.5208 -118.6811 332° Northwest 376 433 38,000  Level Los Angeles Center
11:51AM 34.6139 -118.7397 333° Northwest 376 433 38,000  Level Los Angeles Center
11:52AM 34.7139 -118.8056 332° Northwest 374 430 38,000  Level Los Angeles Center
11:53AM 34.8053 -118.8647 332° Northwest 372 428 38,000  Level Los Angeles Center
11:54AM 34.8844 -118.9417 321° Northwest 367 422 38,000  Level Los Angeles Center
11:55AM 34.9700 -119.0256 321° Northwest 365 420 38,000  Level Los Angeles Center
11:56AM 35.0506 -119.1033 322° Northwest 370 426 38,000  Level Los Angeles Center
11:57AM 35.1317 -119.1819 322° Northwest 372 428 38,000  Level Los Angeles Center
11:59AM 35.2114 -119.2603 321° Northwest 370 426 38,000  Level Los Angeles Center
12:00PM 35.3075 -119.3553 321° Northwest 373 429 38,000  Level Los Angeles Center
12:01PM 35.3881 -119.4333 322° Northwest 372 428 38,000  Level Los Angeles Center
12:02PM 35.4667 -119.5122 321° Northwest 368 423 38,000  Level Los Angeles Center
12:03PM 35.5453 -119.5903 321° Northwest 367 422 38,000  Level Los Angeles Center
12:04PM 35.6250 -119.6681 322° Northwest 368 423 38,000  Level Los Angeles Center
12:05PM 35.7169 -119.7611 321° Northwest 362 417 38,000  Level Los Angeles Center
12:06PM 35.8083 -119.8522 321° Northwest 361 415 38,000  Level Oakland Center
12:07PM 35.8856 -119.9294 321° Northwest 360 414 38,000  Level Oakland Center
12:08PM 35.9628 -120.0078 321° Northwest 361 415 38,000  Level Oakland Center
12:09PM 36.0408 -120.0883 320° Northwest 369 425 38,000  Level Oakland Center
12:10PM 36.1175 -120.1661 321° Northwest 360 414 38,000  Level Oakland Center
12:11PM 36.1936 -120.2439 320° Northwest 357 411 38,000 -1,380 Level Oakland Center
12:12PM 36.2850 -120.3372 321° Northwest 356 410 35,200 -2,700 Descending Oakland Center
12:13PM 36.3633 -120.4169 321° Northwest 364 419 32,500 -2,580 Descending Oakland Center
12:14PM 36.4389 -120.4933 321° Northwest 351 404 30,000 -2,220 Descending Oakland Center
12:15PM 36.5119 -120.5656 322° Northwest 339 390 28,000 -1,020 Descending Oakland Center
12:16PM 36.5858 -120.6458 319° Northwest 354 407 28,000 -480 Level Oakland Center
12:17PM 36.6586 -120.7206 321° Northwest 342 394 27,100 -2,040 Descending Oakland Center
12:18PM 36.7350 -120.8028 319° Northwest 363 418 23,900 -2,940 Descending Oakland Center
12:19PM 36.8067 -120.8806 319° Northwest 346 398 21,200 -2,160 Descending Oakland Center
12:20PM 36.8831 -120.9683 317° Northwest 331 381 19,500 -1,320 Descending Oakland Center
12:21PM 36.9469 -121.0392 318° Northwest 308 354 18,500 -960 Descending Oakland Center
12:22PM 37.0086 -121.1111 317° Northwest 303 349 17,600 -960 Descending Oakland Center
12:23PM 37.0722 -121.1861 317° Northwest 309 356 16,600 -1,260 Descending Oakland Center
12:24PM 37.1333 -121.2569 317° Northwest 304 350 15,100 -1,620 Descending Oakland Center
12:25PM 37.1933 -121.3261 317° Northwest 296 341 13,300 -1,980 Descending Oakland Center
12:26PM 37.2622 -121.4078 317° Northwest 286 329 11,100 -1,680 Descending Oakland Center
12:27PM 37.3183 -121.4731 317° Northwest 279 321 9,900 -1,260 Descending Oakland Center
12:28PM 37.3700 -121.5325 318° Northwest 261 300 8,600 -1,440 Descending Oakland Center
12:29PM 37.4228 -121.5944 317° Northwest 260 299 7,000 -1,320 Descending Oakland Center
12:31PM 37.4769 -121.6542 319° Northwest 260 299 5,900 -600 Descending Oakland Center
12:32PM 37.5219 -121.7028 319° Northwest 223 257 5,900 -480 Level Oakland Center
12:33PM 37.5278 -121.7767 276° West 220 253 5,000 -720 Descending Oakland Center
12:33PM 37.5333 -121.8667 274° West 217 250 4,600 -540 Descending Northern Cal TRACON
12:34PM 37.5500 -121.9333 288° West 217 250 4,000 -540 Descending Northern Cal TRACON
12:35PM 37.5500 -122.0000 270° West 194 223 3,600 -540 Descending Northern Cal TRACON
12:36PM 37.6000 -122.0500 322° Northwest 195 224 3,000 -660 Descending Northern Cal TRACON
12:37PM 37.6333 -122.1000 310° West 193 222 2,300 -600 Descending Northern Cal TRACON
12:38PM 37.6500 -122.1500 293° West 133 153 1,900 -780 Descending Northern Cal TRACON
12:39PM 37.6833 -122.1833 322° Northwest 129 148 800 8,040 Descending Northern Cal TRACON
12:41PM 37.7017 -122.2147 306° West 130 150 20,000 15,360 Climbing Oakland Center
12:43PM 37.7167 -122.2167 270° West  Level FlightAware Approximate